Time;durP1;ratioP1;P1;durP2;ratioP2;P2;SDS_P1;SDS_P2;PMS_P1;PMS_P2;Temp;Humidity;BMP_temperature;BMP_pressure;BME280_temperature;BME280_humidity;BME280_pressure;Samples;Min_cycle;Max_cycle;Signal;HPM_P1;HPM_P2
2023/04/29 00:00:30;;;;;;;0.90;0.60;;;;;;;9.37;94.75;98848.73;79844;1298;3011267;-73
2023/04/29 00:03:00;;;;;;;0.20;0.20;;;;;;;9.19;95.99;98848.02;78760;1298;3026282;-78
2023/04/29 00:05:27;;;;;;;0.40;0.40;;;;;;;9.50;95.50;98849.84;79727;1295;3011693;-73
2023/04/29 00:07:53;;;;;;;2.00;0.60;;;;;;;9.79;93.78;98847.19;79549;1294;3011913;-74
2023/04/29 00:10:21;;;;;;;1.60;1.00;;;;;;;9.75;92.94;98846.30;78519;1298;3049689;-69
2023/04/29 00:12:50;;;;;;;1.90;1.10;;;;;;;9.58;93.72;98848.96;79687;1298;3019035;-73
2023/04/29 00:15:16;;;;;;;1.10;0.90;;;;;;;9.36;94.69;98852.46;79757;1298;3011530;-73
2023/04/29 00:17:44;;;;;;;0.50;0.40;;;;;;;9.25;95.30;98849.84;78422;1298;3051295;-78
2023/04/29 00:20:11;;;;;;;1.40;0.80;;;;;;;9.60;95.10;98854.90;79759;1295;3019265;-76
2023/04/29 00:22:38;;;;;;;1.30;0.80;;;;;;;9.86;92.76;98853.56;79567;1296;3011640;-70
2023/04/29 00:25:07;;;;;;;0.90;0.80;;;;;;;9.80;92.51;98852.55;78438;1298;3026569;-67
2023/04/29 00:27:34;;;;;;;1.60;1.30;;;;;;;9.57;93.39;98853.58;79617;1298;3013387;-78
2023/04/29 00:30:00;;;;;;;0.80;0.70;;;;;;;9.28;94.45;98848.27;79640;1300;3011863;-77
2023/04/29 00:32:28;;;;;;;2.10;1.20;;;;;;;9.05;95.59;98853.61;78266;1301;3052919;-69
2023/04/29 00:34:55;;;;;;;1.20;0.70;;;;;;;8.87;97.11;98851.79;79685;1297;3018472;-69
2023/04/29 00:37:22;;;;;;;2.00;1.10;;;;;;;9.29;96.31;98839.67;79725;1294;3013432;-75
2023/04/29 00:39:50;;;;;;;2.70;1.20;;;;;;;9.65;94.08;98840.59;78374;1295;3049185;-78
2023/04/29 00:42:16;;;;;;;6.80;1.40;;;;;;;9.46;93.72;98840.30;79624;1298;3013056;-72
2023/04/29 00:44:43;;;;;;;2.90;1.50;;;;;;;9.18;94.67;98833.56;79421;1296;3011831;-73
2023/04/29 00:47:11;;;;;;;2.10;1.70;;;;;;;8.94;96.01;98831.06;78465;1298;3026163;-75
2023/04/29 00:49:38;;;;;;;1.80;1.00;;;;;;;8.73;97.41;98841.31;79645;1296;3012592;-67
2023/04/29 00:52:06;;;;;;;2.20;1.30;;;;;;;9.21;96.43;98836.13;79418;1299;3013494;-70
2023/04/29 00:54:34;;;;;;;1.10;1.00;;;;;;;9.51;93.87;98839.80;78361;1296;3048757;-69
2023/04/29 00:57:02;;;;;;;1.60;1.00;;;;;;;9.32;93.59;98844.52;79526;1294;3013690;-69
2023/04/29 00:59:31;;;;;;;1.40;1.10;;;;;;;8.99;95.00;98846.81;79417;1301;3012770;-77
2023/04/29 01:02:00;;;;;;;1.20;1.10;;;;;;;8.84;96.23;98844.29;78446;1296;3053157;-70
2023/04/29 01:04:26;;;;;;;0.70;0.70;;;;;;;8.74;97.12;98846.33;79710;1298;3014871;-75
2023/04/29 01:07:25;;;;;;;2.90;0.90;;;;;;;9.13;96.00;98844.52;79581;1301;3012759;-71
2023/04/29 01:10:23;;;;;;;2.90;1.20;;;;;;;9.32;93.92;98849.04;78194;1296;3049228;-73
2023/04/29 01:13:08;;;;;;;1.70;1.10;;;;;;;9.03;94.67;98848.83;78261;1301;3053498;-71
2023/04/29 01:15:51;;;;;;;1.40;1.00;;;;;;;8.81;95.79;98854.06;78480;1299;3049268;-73
2023/04/29 01:18:24;;;;;;;1.10;0.80;;;;;;;8.64;96.69;98854.09;78425;1300;3053070;-70
2023/04/29 01:20:51;;;;;;;1.10;0.80;;;;;;;8.43;97.99;98861.27;79523;1302;3012970;-77
2023/04/29 01:23:19;;;;;;;0.90;0.90;;;;;;;8.93;97.03;98857.84;78359;1307;3067980;-73
2023/04/29 01:25:46;;;;;;;0.90;0.80;;;;;;;9.17;94.79;98849.36;79599;1298;3013202;-70
2023/04/29 01:28:44;;;;;;;1.40;0.80;;;;;;;9.29;93.93;98854.15;78293;1295;3048726;-73
2023/04/29 01:31:24;;;;;;;1.80;1.10;;;;;;;8.89;94.48;98856.86;78366;1294;3053658;-71
2023/04/29 01:33:58;;;;;;;1.30;1.00;;;;;;;8.69;95.61;98857.09;78445;1298;3051099;-74
2023/04/29 01:36:30;;;;;;;0.90;0.70;;;;;;;8.52;97.07;98867.35;79500;1296;3011721;-74
2023/04/29 01:39:13;;;;;;;1.00;0.80;;;;;;;8.94;96.29;98860.95;78317;1301;3052942;-73
2023/04/29 01:41:43;;;;;;;4.00;1.00;;;;;;;9.14;93.65;98860.34;78297;1299;3069632;-73
2023/04/29 01:44:22;;;;;;;1.50;1.10;;;;;;;8.97;93.82;98858.85;79156;1298;3011563;-75
2023/04/29 01:46:50;;;;;;;1.30;0.90;;;;;;;8.82;94.58;98873.02;79498;1294;3011556;-71
2023/04/29 01:49:26;;;;;;;2.00;0.80;;;;;;;8.60;95.68;98876.30;78268;1299;3057017;-76
2023/04/29 01:51:55;;;;;;;0.70;0.70;;;;;;;8.44;96.84;98880.60;79151;1295;3011808;-70
2023/04/29 01:54:21;;;;;;;1.90;0.90;;;;;;;8.92;96.17;98872.59;79651;1302;3018148;-72
2023/04/29 01:56:48;;;;;;;1.00;0.80;;;;;;;9.01;94.45;98875.34;79686;1300;3013539;-71
2023/04/29 01:59:23;;;;;;;2.00;1.10;;;;;;;8.92;94.42;98870.31;78374;1301;3052362;-68
2023/04/29 02:02:26;;;;;;;1.50;1.20;;;;;;;8.89;94.83;98876.96;78049;1307;3054972;-74
2023/04/29 02:04:59;;;;;;;0.90;0.80;;;;;;;8.61;95.71;98887.09;79618;1296;3011531;-70
2023/04/29 02:07:27;;;;;;;0.90;0.80;;;;;;;8.40;96.93;98901.09;78508;1301;3049670;-73
2023/04/29 02:09:54;;;;;;;1.70;1.00;;;;;;;8.78;96.12;98887.41;79789;1298;3019221;-78
2023/04/29 02:12:22;;;;;;;1.80;1.20;;;;;;;9.05;94.24;98876.64;79667;1299;3013504;-71
2023/04/29 02:14:53;;;;;;;1.50;1.00;;;;;;;9.17;93.81;98880.63;78374;1298;3048632;-71
2023/04/29 02:17:19;;;;;;;2.40;1.10;;;;;;;9.00;94.07;98883.58;79558;1298;3011643;-74
2023/04/29 02:19:48;;;;;;;1.90;1.00;;;;;;;8.78;94.95;98894.75;79274;1301;3011900;-70
2023/04/29 02:22:15;;;;;;;0.80;0.70;;;;;;;8.61;95.72;98897.05;79691;1298;3013292;-69
2023/04/29 02:24:42;;;;;;;1.10;0.70;;;;;;;8.96;95.28;98888.02;79380;1295;3012064;-75
2023/04/29 02:27:10;;;;;;;1.60;1.10;;;;;;;9.30;93.04;98883.63;78193;1296;3026241;-73
2023/04/29 02:29:36;;;;;;;1.40;0.80;;;;;;;9.13;92.82;98883.30;79504;1298;3013369;-74
2023/04/29 02:32:03;;;;;;;0.90;0.60;;;;;;;9.00;93.19;98882.75;79579;1298;3011678;-71
2023/04/29 02:34:31;;;;;;;1.60;1.00;;;;;;;8.81;94.33;98881.98;78239;1300;3026601;-71
2023/04/29 02:37:01;;;;;;;1.50;1.10;;;;;;;8.62;94.92;98887.90;79726;1298;3012896;-74
2023/04/29 02:39:30;;;;;;;1.30;0.80;;;;;;;8.51;95.80;98890.27;78918;1296;3011877;-71
2023/04/29 02:41:57;;;;;;;1.50;1.00;;;;;;;8.87;95.33;98895.79;79496;1295;3013098;-75
2023/04/29 02:44:23;;;;;;;1.10;0.90;;;;;;;9.14;93.12;98898.42;79625;1298;3011540;-70
2023/04/29 02:46:51;;;;;;;2.60;1.20;;;;;;;9.03;93.15;98900.37;78440;1298;3026201;-72
2023/04/29 02:49:18;;;;;;;1.30;1.00;;;;;;;8.86;94.15;98904.02;79549;1301;3012843;-74
2023/04/29 02:51:44;;;;;;;2.60;1.00;;;;;;;8.66;94.70;98909.83;79461;1296;3011865;-73
2023/04/29 02:54:12;;;;;;;0.80;0.60;;;;;;;8.50;95.94;98911.51;78436;1296;3026516;-71
2023/04/29 02:56:39;;;;;;;0.70;0.70;;;;;;;8.81;95.84;98907.30;79461;1295;3018094;-70
2023/04/29 02:59:05;;;;;;;1.80;0.90;;;;;;;9.07;93.94;98903.30;79534;1298;3011444;-75
2023/04/29 03:01:34;;;;;;;2.30;0.90;;;;;;;9.22;93.04;98897.59;78241;1303;3048672;-68
2023/04/29 03:04:00;;;;;;;2.10;1.00;;;;;;;9.03;92.77;98902.33;79457;1302;3020806;-69
2023/04/29 03:06:27;;;;;;;4.50;1.20;;;;;;;8.72;93.77;98902.61;79439;1301;3011683;-73
2023/04/29 03:08:55;;;;;;;2.30;1.10;;;;;;;8.52;95.18;98899.81;78122;1300;3026604;-70
2023/04/29 03:11:23;;;;;;;2.10;1.20;;;;;;;8.42;95.95;98911.57;79623;1302;3012838;-70
2023/04/29 03:13:50;;;;;;;1.90;1.30;;;;;;;8.82;95.23;98898.55;79547;1294;3011730;-72
2023/04/29 03:16:18;;;;;;;2.30;1.00;;;;;;;9.08;93.29;98904.95;78237;1301;3049567;-74
2023/04/29 03:18:44;;;;;;;1.80;1.00;;;;;;;8.99;92.90;98911.28;79488;1301;3011193;-69
2023/04/29 03:21:11;;;;;;;1.60;1.30;;;;;;;8.83;93.79;98904.07;79641;1298;3011469;-74
2023/04/29 03:23:39;;;;;;;1.00;0.80;;;;;;;8.64;94.62;98913.27;78442;1295;3028092;-69
2023/04/29 03:26:06;;;;;;;1.50;0.70;;;;;;;8.52;95.58;98913.10;79591;1296;3013100;-68
2023/04/29 03:28:34;;;;;;;0.80;0.50;;;;;;;8.86;94.99;98906.69;79674;1296;3011724;-74
2023/04/29 03:31:02;;;;;;;1.40;0.90;;;;;;;9.22;92.50;98906.89;78264;1301;3048760;-71
2023/04/29 03:33:28;;;;;;;0.70;0.60;;;;;;;9.27;91.69;98901.99;79610;1298;3012894;-75
2023/04/29 03:35:55;;;;;;;2.30;1.20;;;;;;;8.89;92.52;98900.54;79730;1293;3012680;-71
2023/04/29 03:38:24;;;;;;;3.10;0.80;;;;;;;8.61;94.64;98904.52;78526;1298;3026232;-69
2023/04/29 03:40:52;;;;;;;2.60;0.90;;;;;;;8.43;95.68;98906.34;79820;1293;3012907;-75
2023/04/29 03:43:21;;;;;;;1.10;0.50;;;;;;;8.26;96.68;98910.14;78556;1298;3026059;-71
2023/04/29 03:45:48;;;;;;;2.20;0.80;;;;;;;8.94;95.14;98896.07;79875;1293;3013121;-72
2023/04/29 03:48:16;;;;;;;1.10;1.00;;;;;;;9.30;92.07;98898.86;79768;1299;3011651;-71
2023/04/29 03:50:45;;;;;;;1.40;0.90;;;;;;;9.27;91.24;98893.78;78553;1306;3052988;-75
2023/04/29 03:53:11;;;;;;;2.20;1.00;;;;;;;9.12;91.47;98903.48;79610;1300;3013688;-71
2023/04/29 03:55:38;;;;;;;1.10;0.80;;;;;;;8.83;92.95;98896.35;79670;1298;3011775;-72
2023/04/29 03:58:06;;;;;;;1.50;0.80;;;;;;;8.68;93.52;98907.79;78531;1298;3026649;-69
2023/04/29 04:00:34;;;;;;;3.40;0.50;;;;;;;8.54;95.04;98908.79;79766;1293;3013172;-67
2023/04/29 04:03:02;;;;;;;2.50;0.60;;;;;;;8.93;94.23;98911.30;79652;1292;3011626;-68
2023/04/29 04:05:30;;;;;;;1.00;0.90;;;;;;;9.39;91.72;98912.75;78372;1298;3052927;-68
2023/04/29 04:08:01;;;;;;;3.80;1.00;;;;;;;9.40;90.94;98916.23;79737;1297;3011873;-67
2023/04/29 04:10:35;;;;;;;1.50;0.90;;;;;;;9.22;91.32;98916.09;78488;1298;3051719;-73
2023/04/29 04:13:04;;;;;;;1.30;1.00;;;;;;;8.91;92.20;98917.36;79531;1292;3013009;-68
2023/04/29 04:15:33;;;;;;;2.40;0.80;;;;;;;8.73;93.31;98919.33;79314;1293;3011649;-74
2023/04/29 04:18:00;;;;;;;0.90;0.70;;;;;;;8.61;94.73;98926.19;79552;1293;3020673;-74
2023/04/29 04:20:27;;;;;;;1.20;0.60;;;;;;;9.17;93.15;98926.39;79852;1292;3013247;-68
2023/04/29 04:22:55;;;;;;;1.60;0.80;;;;;;;9.66;90.09;98932.55;78405;1298;3026504;-77
2023/04/29 04:25:29;;;;;;;1.20;0.80;;;;;;;9.57;89.78;98925.45;79757;1298;3011975;-69
2023/04/29 04:28:01;;;;;;;2.20;1.10;;;;;;;9.30;90.32;98918.79;78352;1292;3051434;-71
2023/04/29 04:30:46;;;;;;;3.70;0.90;;;;;;;9.05;91.57;98919.31;78525;1298;3056606;-70
2023/04/29 04:33:14;;;;;;;2.50;1.20;;;;;;;8.79;92.91;98912.36;79764;1292;3013690;-74
2023/04/29 04:35:44;;;;;;;1.60;0.60;;;;;;;8.65;93.59;98912.35;79040;1298;3013558;-69
2023/04/29 04:38:11;;;;;;;0.70;0.70;;;;;;;9.22;92.89;98918.20;79701;1295;3018870;-72
2023/04/29 04:40:41;;;;;;;1.00;0.70;;;;;;;9.61;90.31;98919.19;79705;1298;3011646;-66
2023/04/29 04:43:41;;;;;;;2.20;1.00;;;;;;;9.57;89.55;98922.83;78419;1292;3069009;-69
2023/04/29 04:46:14;;;;;;;1.10;0.90;;;;;;;9.37;89.91;98922.67;79809;1293;3011797;-74
2023/04/29 04:49:02;;;;;;;4.30;0.80;;;;;;;9.24;90.91;98922.45;78497;1296;3057959;-73
2023/04/29 04:51:29;;;;;;;2.70;1.20;;;;;;;9.21;91.06;98927.36;79624;1292;3012904;-70
2023/04/29 04:53:55;;;;;;;0.60;0.50;;;;;;;9.02;92.15;98929.27;79538;1298;3011591;-71
2023/04/29 04:56:25;;;;;;;1.20;0.80;;;;;;;9.59;91.21;98930.89;78430;1297;3052733;-72
2023/04/29 04:58:51;;;;;;;1.90;1.00;;;;;;;10.05;88.06;98928.52;79502;1296;3018356;-73
2023/04/29 05:01:18;;;;;;;1.10;0.80;;;;;;;10.10;87.12;98928.07;79376;1296;3011824;-69
2023/04/29 05:03:45;;;;;;;2.10;0.90;;;;;;;10.09;86.71;98932.64;78413;1295;3026828;-71
2023/04/29 05:06:12;;;;;;;1.60;0.90;;;;;;;9.81;87.33;98933.49;79560;1299;3013439;-71
2023/04/29 05:08:40;;;;;;;1.70;1.00;;;;;;;9.66;88.24;98933.78;79629;1294;3011512;-73
2023/04/29 05:11:17;;;;;;;1.20;0.70;;;;;;;9.59;88.75;98933.83;78651;1298;3052333;-76
2023/04/29 05:13:44;;;;;;;1.00;0.70;;;;;;;9.96;88.22;98932.15;79999;1298;3013364;-73
2023/04/29 05:16:12;;;;;;;0.90;0.70;;;;;;;10.49;85.79;98933.34;78337;1295;3067469;-67
2023/04/29 05:18:43;;;;;;;1.40;1.00;;;;;;;10.56;84.86;98933.38;79672;1292;3011472;-75
2023/04/29 05:21:11;;;;;;;1.50;0.80;;;;;;;10.27;85.55;98931.14;78337;1292;3026894;-71
2023/04/29 05:23:38;;;;;;;2.80;1.00;;;;;;;10.13;86.04;98930.49;79536;1296;3012986;-71
2023/04/29 05:26:04;;;;;;;1.60;0.90;;;;;;;9.76;87.08;98929.95;79567;1301;3011605;-70
2023/04/29 05:28:33;;;;;;;1.40;0.80;;;;;;;9.58;88.20;98919.41;78538;1298;3028923;-78
2023/04/29 05:31:00;;;;;;;0.50;0.40;;;;;;;9.63;88.81;98926.25;79777;1295;3013693;-71
2023/04/29 05:33:26;;;;;;;1.20;0.80;;;;;;;10.19;87.60;98927.60;79430;1298;3011788;-73
2023/04/29 05:35:54;;;;;;;0.90;0.60;;;;;;;10.63;85.01;98933.27;78304;1296;3027453;-77
2023/04/29 05:38:27;;;;;;;1.90;0.80;;;;;;;10.69;84.38;98935.64;79858;1295;3012991;-65
2023/04/29 05:41:02;;;;;;;2.50;0.90;;;;;;;10.59;84.30;98941.41;78603;1295;3049919;-74
2023/04/29 05:43:38;;;;;;;1.90;1.10;;;;;;;10.32;85.26;98942.68;79282;1297;3011761;-72
2023/04/29 05:46:05;;;;;;;1.10;0.90;;;;;;;10.25;85.76;98943.69;79864;1298;3013489;-76
2023/04/29 05:48:31;;;;;;;1.40;0.70;;;;;;;10.12;86.03;98946.11;79500;1301;3012140;-75
2023/04/29 05:51:01;;;;;;;1.20;0.50;;;;;;;10.09;86.68;98946.84;78319;1300;3052013;-75
2023/04/29 05:53:28;;;;;;;1.10;0.40;;;;;;;10.58;85.69;98949.49;79718;1299;3014966;-72
2023/04/29 05:55:54;;;;;;;5.80;0.70;;;;;;;11.10;83.44;98949.64;79500;1301;3013157;-73
2023/04/29 05:58:22;;;;;;;1.40;0.80;;;;;;;11.00;82.96;98949.60;78269;1301;3049137;-71
2023/04/29 06:00:49;;;;;;;1.00;0.70;;;;;;;10.87;83.41;98957.01;79501;1301;3012951;-74
2023/04/29 06:03:18;;;;;;;4.00;0.70;;;;;;;10.78;83.54;98962.89;79627;1298;3013486;-73
2023/04/29 06:05:46;;;;;;;1.40;0.90;;;;;;;10.55;84.56;98962.98;78467;1293;3051413;-74
2023/04/29 06:08:30;;;;;;;1.70;1.10;;;;;;;10.44;85.02;98970.12;78327;1295;3056950;-73
2023/04/29 06:11:11;;;;;;;0.60;0.60;;;;;;;10.34;86.10;98975.27;78449;1298;3048373;-78
2023/04/29 06:13:39;;;;;;;3.70;0.70;;;;;;;10.97;85.02;98980.80;79672;1292;3011437;-73
2023/04/29 06:16:06;;;;;;;5.00;0.50;;;;;;;11.51;82.36;98985.23;79633;1298;3011489;-74
2023/04/29 06:18:36;;;;;;;1.30;0.80;;;;;;;11.57;81.70;98984.30;78399;1300;3051746;-70
2023/04/29 06:21:02;;;;;;;2.80;0.70;;;;;;;11.33;82.03;98981.45;79611;1300;3013721;-71
2023/04/29 06:23:30;;;;;;;1.30;1.20;;;;;;;11.27;82.59;98987.33;79762;1293;3011600;-72
2023/04/29 06:26:00;;;;;;;1.80;1.20;;;;;;;11.12;82.65;98993.60;78398;1298;3050122;-72
2023/04/29 06:28:28;;;;;;;1.50;0.80;;;;;;;10.88;83.71;98992.29;79745;1292;3012822;-69
2023/04/29 06:30:58;;;;;;;0.90;0.40;;;;;;;10.72;84.54;98987.63;79200;1298;3011471;-73
2023/04/29 06:33:25;;;;;;;2.80;0.80;;;;;;;11.12;83.59;98984.31;79893;1298;3012921;-74
2023/04/29 06:35:52;;;;;;;1.70;0.80;;;;;;;11.56;81.48;98983.64;79694;1299;3011688;-73
2023/04/29 06:38:39;;;;;;;1.60;1.00;;;;;;;11.58;81.09;98982.28;78573;1298;3052245;-75
2023/04/29 06:41:22;;;;;;;1.80;1.10;;;;;;;11.44;81.82;98988.23;78379;1294;3057570;-72
2023/04/29 06:43:59;;;;;;;3.50;1.20;;;;;;;11.31;82.42;98990.03;78408;1293;3048857;-64
2023/04/29 06:46:46;;;;;;;3.60;1.20;;;;;;;11.08;83.23;99002.63;78544;1293;3051908;-73
2023/04/29 06:49:17;;;;;;;1.40;0.90;;;;;;;10.95;83.80;99006.38;79732;1293;3011530;-75
2023/04/29 06:51:45;;;;;;;0.70;0.40;;;;;;;10.85;84.49;99003.53;78402;1298;3052960;-72
2023/04/29 06:54:11;;;;;;;2.60;0.70;;;;;;;11.39;83.44;99006.13;79517;1296;3019211;-71
2023/04/29 06:56:38;;;;;;;2.60;1.00;;;;;;;11.76;81.73;99018.02;79583;1292;3011869;-74
2023/04/29 06:59:06;;;;;;;3.20;1.00;;;;;;;11.77;81.09;99018.46;78544;1298;3026640;-73
2023/04/29 07:01:35;;;;;;;1.50;1.10;;;;;;;11.69;81.69;99020.23;79657;1298;3012702;-72
2023/04/29 07:04:04;;;;;;;1.10;1.00;;;;;;;11.43;82.07;99021.08;79136;1295;3011786;-70
2023/04/29 07:06:31;;;;;;;1.50;1.10;;;;;;;11.17;83.39;99023.39;79602;1298;3018757;-72
2023/04/29 07:08:57;;;;;;;2.30;1.10;;;;;;;11.05;84.21;99029.13;79724;1295;3012213;-72
2023/04/29 07:11:26;;;;;;;3.40;0.60;;;;;;;11.05;84.43;99031.95;78378;1293;3026685;-73
2023/04/29 07:13:52;;;;;;;1.00;0.70;;;;;;;11.55;83.83;99030.90;79413;1294;3012977;-74
2023/04/29 07:32:22;;;;;;;2.70;1.30;;;;;;;11.10;85.19;99032.55;63588;1319;3068222;-69
2023/04/29 07:34:48;;;;;;;1.00;0.70;;;;;;;11.03;85.43;99029.98;78736;1310;3018775;-67
2023/04/29 07:37:15;;;;;;;1.70;0.80;;;;;;;11.64;84.26;99029.72;78631;1308;3011917;-67
2023/04/29 07:39:43;;;;;;;2.40;1.10;;;;;;;12.17;81.95;99039.14;77466;1315;3026219;-69
2023/04/29 07:42:10;;;;;;;2.60;0.90;;;;;;;12.21;81.54;99043.33;78753;1312;3013221;-70
2023/04/29 07:44:37;;;;;;;2.10;1.00;;;;;;;12.14;82.11;99044.63;78575;1312;3011608;-66
2023/04/29 07:47:05;;;;;;;1.40;1.00;;;;;;;11.99;82.06;99037.59;77407;1310;3025757;-61
2023/04/29 07:49:34;;;;;;;1.90;1.10;;;;;;;11.78;82.40;99040.35;78519;1309;3015025;-64
2023/04/29 07:52:04;;;;;;;1.70;1.10;;;;;;;11.51;83.31;99041.55;78083;1312;3011485;-67
2023/04/29 07:54:31;;;;;;;2.50;1.20;;;;;;;11.36;83.98;99041.39;78633;1310;3013801;-65
2023/04/29 07:56:58;;;;;;;0.70;0.70;;;;;;;11.18;85.13;99041.62;78365;1307;3011723;-66
2023/04/29 07:59:26;;;;;;;1.80;0.80;;;;;;;11.72;84.44;99034.44;77434;1312;3053486;-62
2023/04/29 08:01:53;;;;;;;1.20;1.00;;;;;;;12.34;82.26;99029.45;78743;1312;3014838;-62
2023/04/29 08:04:20;;;;;;;1.80;1.10;;;;;;;12.43;81.47;99029.27;78532;1312;3012442;-62
2023/04/29 08:06:53;;;;;;;3.30;1.40;;;;;;;12.17;81.94;99029.62;77375;1312;3056687;-63
2023/04/29 08:09:20;;;;;;;2.70;1.50;;;;;;;11.84;83.01;99021.98;78764;1307;3013033;-64
2023/04/29 08:11:46;;;;;;;2.80;1.80;;;;;;;11.66;83.84;99015.07;78416;1312;3011892;-64
2023/04/29 08:14:14;;;;;;;3.20;1.90;;;;;;;11.34;85.20;99012.77;77710;1311;3026745;-64
2023/04/29 08:16:41;;;;;;;1.70;1.20;;;;;;;11.11;86.87;99012.45;78576;1308;3013593;-65
2023/04/29 08:19:08;;;;;;;2.90;1.70;;;;;;;11.73;85.91;99003.17;78680;1312;3011916;-66
2023/04/29 08:21:36;;;;;;;3.10;1.60;;;;;;;12.22;83.38;99005.02;77463;1307;3025802;-69
2023/04/29 08:24:04;;;;;;;2.30;1.50;;;;;;;11.90;83.29;99004.05;78650;1307;3013828;-62
2023/04/29 08:26:31;;;;;;;6.70;1.80;;;;;;;11.99;83.71;99013.20;78560;1307;3011859;-62
2023/04/29 08:28:59;;;;;;;2.20;1.70;;;;;;;11.93;84.01;99017.87;77351;1311;3052430;-64
2023/04/29 08:31:25;;;;;;;4.20;2.70;;;;;;;11.65;84.15;99014.58;78699;1312;3013081;-62
2023/04/29 08:33:52;;;;;;;7.70;3.50;;;;;;;11.46;84.62;99015.96;78497;1312;3012114;-67
2023/04/29 08:36:20;;;;;;;2.80;1.50;;;;;;;11.37;85.11;99011.31;77370;1312;3029044;-61
2023/04/29 08:38:47;;;;;;;2.70;1.40;;;;;;;11.92;84.55;99005.45;78696;1307;3013216;-65
2023/04/29 08:41:15;;;;;;;3.00;1.80;;;;;;;12.59;82.42;99008.39;78537;1307;3013053;-63
2023/04/29 08:43:43;;;;;;;2.20;1.80;;;;;;;12.32;81.58;99014.27;77506;1311;3053134;-64
2023/04/29 08:46:10;;;;;;;3.80;2.00;;;;;;;12.10;82.83;99014.73;78855;1307;3012607;-64
2023/04/29 08:48:38;;;;;;;3.80;2.20;;;;;;;11.96;82.79;99011.31;78724;1312;3011676;-66
2023/04/29 08:51:07;;;;;;;2.90;2.50;;;;;;;11.83;82.99;99018.59;77402;1311;3056487;-68
2023/04/29 08:53:33;;;;;;;4.20;2.40;;;;;;;11.56;83.90;99018.88;78803;1307;3019006;-63
2023/04/29 08:56:03;;;;;;;2.70;1.10;;;;;;;11.20;86.07;99018.62;78490;1307;3012832;-65
2023/04/29 08:58:31;;;;;;;1.60;1.10;;;;;;;11.63;85.67;99011.05;77481;1319;3051766;-61
2023/04/29 09:00:58;;;;;;;2.20;1.70;;;;;;;12.28;82.99;99010.70;78467;1312;3021202;-62
2023/04/29 09:03:33;;;;;;;2.30;1.40;;;;;;;12.49;81.77;99013.34;78684;1313;3011651;-65
2023/04/29 09:06:02;;;;;;;3.30;2.20;;;;;;;11.99;82.52;99017.08;78039;1312;3057291;-65
2023/04/29 09:08:29;;;;;;;3.40;2.30;;;;;;;11.60;84.12;99019.34;79127;1307;3011366;-64
2023/04/29 09:10:56;;;;;;;4.10;2.60;;;;;;;11.42;84.86;99017.98;78677;1309;3013940;-66
2023/04/29 09:13:30;;;;;;;4.20;2.60;;;;;;;11.39;84.73;99007.13;77897;1311;3052222;-65
2023/04/29 09:15:59;;;;;;;2.30;1.50;;;;;;;10.99;86.14;99014.71;78182;1312;3013023;-66
2023/04/29 09:18:49;;;;;;;2.50;1.20;;;;;;;11.71;84.91;99012.76;78792;1307;3013710;-67
2023/04/29 09:21:23;;;;;;;2.60;1.50;;;;;;;12.13;82.26;99013.17;77534;1312;3053187;-68
2023/04/29 09:23:53;;;;;;;3.10;1.60;;;;;;;11.95;82.61;99003.52;78897;1313;3011546;-66
2023/04/29 09:26:22;;;;;;;2.60;1.80;;;;;;;11.55;83.17;99002.14;77382;1307;3049369;-64
2023/04/29 09:29:06;;;;;;;3.60;2.00;;;;;;;11.46;83.87;98995.24;78810;1307;3016133;-68
2023/04/29 09:31:34;;;;;;;;;;;;;;;11.25;84.69;98995.18;77546;1312;3052285;-70
2023/04/29 09:34:00;;;;;;;3.40;1.90;;;;;;;11.09;85.75;98995.61;78807;1311;3018370;-72
2023/04/29 09:36:57;;;;;;;3.00;0.90;;;;;;;10.99;86.87;98994.89;78744;1312;3014080;-67
2023/04/29 09:39:25;;;;;;;1.80;1.10;;;;;;;11.61;84.99;98994.52;77508;1312;3056514;-69
2023/04/29 09:41:52;;;;;;;2.70;1.60;;;;;;;12.03;83.16;98998.54;78882;1307;3013842;-70
2023/04/29 09:44:18;;;;;;;2.50;1.90;;;;;;;11.83;83.18;99001.71;78871;1311;3013396;-67
2023/04/29 09:47:12;;;;;;;3.20;1.80;;;;;;;11.76;83.60;98998.02;77710;1311;3026979;-73
2023/04/29 09:49:41;;;;;;;2.10;1.80;;;;;;;11.42;84.83;98995.55;77522;1313;3053476;-70
2023/04/29 09:52:11;;;;;;;4.30;2.20;;;;;;;11.41;85.67;98994.23;78784;1312;3013081;-72
2023/04/29 09:54:40;;;;;;;4.20;2.60;;;;;;;11.24;86.07;98994.02;77567;1312;3057132;-71
2023/04/29 09:57:08;;;;;;;1.70;1.10;;;;;;;11.07;86.46;99001.52;78875;1307;3013290;-75
2023/04/29 09:59:38;;;;;;;3.10;1.60;;;;;;;11.66;84.93;98997.54;78385;1311;3013699;-70
2023/04/29 10:02:19;;;;;;;2.70;1.70;;;;;;;12.24;82.60;98996.95;78663;1312;3014080;-75
2023/04/29 10:04:50;;;;;;;2.60;2.20;;;;;;;12.26;81.05;99001.38;77500;1312;3053528;-71
2023/04/29 10:07:16;;;;;;;3.40;2.40;;;;;;;11.94;82.05;98997.20;78719;1310;3011941;-73
2023/04/29 10:09:46;;;;;;;4.00;2.50;;;;;;;11.26;85.09;98988.23;77449;1308;3025173;-70
2023/04/29 10:12:17;;;;;;;2.70;2.10;;;;;;;11.23;86.27;98994.27;78780;1312;3013378;-72
2023/04/29 10:14:56;;;;;;;4.10;2.90;;;;;;;11.16;87.02;98995.80;77552;1312;3052682;-74
2023/04/29 10:17:36;;;;;;;2.70;1.40;;;;;;;11.09;86.68;98988.71;77745;1312;3050287;-67
2023/04/29 10:20:05;;;;;;;2.40;1.30;;;;;;;11.77;84.15;98991.44;77805;1312;3052463;-66
2023/04/29 10:22:44;;;;;;;2.70;1.80;;;;;;;12.05;82.30;99004.19;78849;1312;3012966;-65
2023/04/29 10:25:17;;;;;;;5.60;2.40;;;;;;;11.92;82.60;99004.77;77611;1312;3052223;-64
2023/04/29 10:27:44;;;;;;;4.10;2.40;;;;;;;11.76;83.45;99006.28;79093;1314;3011455;-66
2023/04/29 10:30:16;;;;;;;4.00;2.60;;;;;;;11.48;84.90;99005.48;77347;1307;3048716;-64
2023/04/29 10:32:44;;;;;;;3.90;2.40;;;;;;;11.40;85.30;99015.01;78742;1307;3011693;-65
2023/04/29 10:35:14;;;;;;;3.30;2.70;;;;;;;11.33;86.10;99020.21;78134;1311;3049758;-67
2023/04/29 10:37:41;;;;;;;2.60;1.10;;;;;;;11.26;86.94;99022.91;79605;1312;3013197;-68
2023/04/29 10:40:41;;;;;;;2.80;1.40;;;;;;;11.51;85.90;99023.45;77996;1314;3013742;-64
2023/04/29 10:43:09;;;;;;;3.00;1.80;;;;;;;12.26;83.59;99027.05;77336;1321;3069609;-62
2023/04/29 10:45:36;;;;;;;2.20;2.00;;;;;;;12.30;82.65;99026.90;78689;1313;3013390;-64
2023/04/29 10:48:07;;;;;;;2.90;2.10;;;;;;;12.19;82.60;99031.95;78701;1307;3011657;-65
2023/04/29 10:50:35;;;;;;;3.10;2.10;;;;;;;11.93;83.22;99036.77;77338;1307;3052564;-66
2023/04/29 10:53:03;;;;;;;6.30;1.90;;;;;;;11.93;83.39;99043.85;78573;1312;3013665;-62
2023/04/29 10:55:30;;;;;;;7.30;2.20;;;;;;;11.74;83.75;99040.77;78594;1312;3012008;-69
2023/04/29 10:57:58;;;;;;;0.90;0.80;;;;;;;11.50;84.55;99045.13;77573;1309;3069231;-63
2023/04/29 11:00:25;;;;;;;3.40;1.60;;;;;;;12.00;84.18;99049.08;78500;1310;3012761;-65
2023/04/29 11:02:53;;;;;;;4.90;1.60;;;;;;;12.24;82.07;99051.73;78512;1309;3011580;-63
2023/04/29 11:05:33;;;;;;;2.10;1.80;;;;;;;12.06;82.09;99052.20;77602;1311;3053146;-63
2023/04/29 11:08:11;;;;;;;3.60;2.60;;;;;;;12.11;82.64;99054.49;77690;1307;3051332;-64
2023/04/29 11:10:40;;;;;;;4.30;3.00;;;;;;;11.85;82.80;99065.08;77406;1312;3052799;-62
2023/04/29 11:13:27;;;;;;;3.90;2.90;;;;;;;11.68;83.72;99065.27;78704;1311;3013543;-62
2023/04/29 11:16:09;;;;;;;5.80;2.90;;;;;;;11.63;83.96;99071.45;77936;1307;3051969;-63
2023/04/29 11:19:22;;;;;;;3.70;1.50;;;;;;;11.62;84.51;99069.40;77780;1313;3056276;-62
2023/04/29 11:22:10;;;;;;;2.60;1.90;;;;;;;12.26;82.40;99071.63;77486;1313;3049274;-67
2023/04/29 11:24:51;;;;;;;4.40;3.10;;;;;;;12.54;80.90;99078.70;75213;1312;5549266;-64
2023/04/29 11:27:23;;;;;;;4.40;3.70;;;;;;;12.36;80.75;99073.36;77473;1312;3052274;-66
2023/04/29 11:29:56;;;;;;;4.20;3.80;;;;;;;11.97;81.70;99076.38;78678;1307;3011660;-64
2023/04/29 11:32:29;;;;;;;4.20;3.80;;;;;;;11.72;82.31;99069.69;77464;1320;3052744;-64
2023/04/29 11:35:10;;;;;;;7.50;4.40;;;;;;;11.57;82.79;99060.08;78530;1309;3013707;-63
2023/04/29 11:37:39;;;;;;;5.00;3.90;;;;;;;11.51;83.56;99056.66;77347;1310;3051925;-64
2023/04/29 11:40:06;;;;;;;4.60;3.50;;;;;;;11.50;83.48;99056.85;78825;1312;3013713;-64
2023/04/29 11:42:50;;;;;;;2.40;1.50;;;;;;;11.51;83.84;99058.58;78577;1307;3014147;-61
2023/04/29 11:45:18;;;;;;;;;;;;;;;12.08;82.40;99050.95;77466;1312;3050466;-63
2023/04/29 11:47:46;;;;;;;5.50;3.00;;;;;;;12.31;81.18;99045.83;78694;1312;3012911;-62
2023/04/29 11:50:15;;;;;;;7.60;2.70;;;;;;;12.23;80.80;99043.06;78920;1310;3011560;-66
2023/04/29 11:52:43;;;;;;;4.60;2.80;;;;;;;12.14;81.46;99040.00;77425;1312;3050255;-62